ジュノー の空港の天気 - METARとTAF

ジュノー国際空港 ( PAJN / JNU ) - アメリカ アラスカ州ジュノー
飛行場実況気象(Metar)
観測時間01/21 08:53 AKST (01/21 17:53 UTC)
風向・風速静穏 0m/s
視程10km以上
天気現象散在した霧
少しの雲 雲底高度 不明
全天の4割程度の雲 雲底高度 2440m
全天の8割程度の雲 雲底高度 3660m
気温-2.8℃
湿度100%
気圧997.6hPa
METARPAJN 211753Z 00000KT 10SM BCFG FEW000 SCT080 BKN120 M03/M03 A2946 RMK AO2 SLP976 BCFG FEW000 BCFG E-W 60000 I6001 T10281028 11011 21033 55006 $
過去の天気等 Google飛行場航空写真 Wunderground天気予報

過去48時間のMETAR

飛行場予報(TAF)
発表時間: 1/21 08:20 AKST (1/21 17:20 UTC)
予報対象時間: 21日9時 AKST ~ 22日9時 AKST
風向・風速静穏
視程10km以上
天気現象散在した霧
少しの雲 雲底高度 90m
全天の8割程度の雲 雲底高度 1,520m
全天の8割程度の雲 雲底高度 3,050m
21日9時 AKST ~ 21日11時 AKST に一時的に
視程6,440m
天気現象もや
全天の8割程度の雲 雲底高度 90m
全天を覆う雲 雲底高度 760m
21日11時 AKST から
風向・風速東 2m/s
視程10km以上
全天を覆う雲 雲底高度 1,520m
22日0時 AKST から
風向・風速東 3m/s
視程10km以上
天気現象弱いしゅう雪
全天を覆う雲 雲底高度 1,220m
PAJN 211720Z 2118/2218 00000KT P6SM BCFG FEW003 BKN050 BKN100
TEMPO 2118/2120 4SM BR BKN003 OVC025
FM212000 10004KT P6SM OVC050
FM220900 10005KT P6SM -SHSN OVC040